Time;durP1;ratioP1;P1;durP2;ratioP2;P2;SDS_P1;SDS_P2;PMS_P1;PMS_P2;Temp;Humidity;BMP_temperature;BMP_pressure;BME280_temperature;BME280_humidity;BME280_pressure;Samples;Min_cycle;Max_cycle;Signal;HPM_P1;HPM_P2
2022/04/04 00:01:46;;;;;;;0.00;0.00;;;4.00;77.50;;;;;;4180640;28;20041;-69
2022/04/04 00:04:12;;;;;;;0.00;0.00;;;4.00;77.60;;;;;;4180417;28;20049;-68
2022/04/04 00:06:35;;;;;;;0.00;0.00;;;4.00;77.60;;;;;;4180583;28;20165;-66
2022/04/04 00:08:59;;;;;;;0.00;0.00;;;4.10;77.60;;;;;;4180104;28;20067;-70
2022/04/04 00:11:21;;;;;;;0.00;0.00;;;4.00;77.50;;;;;;4180152;28;20041;-72
2022/04/04 00:13:47;;;;;;;0.00;0.00;;;3.90;77.70;;;;;;4166482;28;20064;-69
2022/04/04 00:16:09;;;;;;;0.00;0.00;;;4.00;77.70;;;;;;4166553;28;20065;-67
2022/04/04 00:18:34;;;;;;;0.00;0.00;;;3.90;77.60;;;;;;4166651;28;20135;-68
2022/04/04 00:21:00;;;;;;;0.00;0.00;;;4.00;77.50;;;;;;4166560;28;20056;-70
2022/04/04 00:23:24;;;;;;;0.00;0.00;;;4.00;77.50;;;;;;4166788;28;20049;-68
2022/04/04 00:25:53;;;;;;;0.00;0.00;;;4.10;77.40;;;;;;4180360;28;20140;-68
2022/04/04 00:28:19;;;;;;;0.00;0.00;;;4.10;77.30;;;;;;4166959;28;20491;-68
2022/04/04 00:30:45;;;;;;;0.00;0.00;;;4.00;77.20;;;;;;4180020;28;20085;-70
2022/04/04 00:33:07;;;;;;;0.00;0.00;;;4.00;77.50;;;;;;4180157;28;20496;-70
2022/04/04 00:35:30;;;;;;;0.00;0.00;;;4.00;77.60;;;;;;4166639;28;20096;-68
2022/04/04 00:37:55;;;;;;;0.00;0.00;;;4.00;77.90;;;;;;4166361;28;20116;-68
2022/04/04 00:40:17;;;;;;;0.00;0.00;;;4.00;77.30;;;;;;4166482;28;20087;-67
2022/04/04 00:42:40;;;;;;;0.00;0.00;;;3.80;77.90;;;;;;4180278;28;20060;-67
2022/04/04 00:45:02;;;;;;;0.00;0.00;;;3.80;78.00;;;;;;4179673;28;20049;-66
2022/04/04 00:47:27;;;;;;;0.00;0.00;;;3.90;77.70;;;;;;4180089;28;20041;-67
2022/04/04 00:49:49;;;;;;;0.00;0.00;;;3.90;77.60;;;;;;4180177;28;20095;-69
2022/04/04 00:52:11;;;;;;;0.00;0.00;;;3.90;77.50;;;;;;4166355;28;20423;-68
2022/04/04 00:54:35;;;;;;;0.00;0.00;;;3.90;77.50;;;;;;4166380;28;20084;-70
2022/04/04 00:57:00;;;;;;;0.00;0.00;;;3.90;77.30;;;;;;4165699;28;20057;-67
2022/04/04 00:59:25;;;;;;;0.00;0.00;;;4.00;77.20;;;;;;4166500;28;20056;-69
2022/04/04 01:01:47;;;;;;;0.00;0.00;;;4.00;77.30;;;;;;4180054;28;20110;-69
2022/04/04 01:04:16;;;;;;;0.00;0.00;;;4.00;77.00;;;;;;4180012;28;20439;-71
2022/04/04 01:06:41;;;;;;;0.00;0.00;;;4.00;77.20;;;;;;4180002;28;20060;-72
2022/04/04 01:09:05;;;;;;;0.00;0.00;;;4.10;77.00;;;;;;4193498;28;20041;-68
2022/04/04 01:11:27;;;;;;;0.00;0.00;;;4.10;76.90;;;;;;4179872;28;20063;-67
2022/04/04 01:13:52;;;;;;;0.00;0.00;;;4.10;76.60;;;;;;4166245;28;20041;-66
2022/04/04 01:16:16;;;;;;;0.00;0.00;;;4.10;76.70;;;;;;4179836;28;20041;-69
2022/04/04 01:18:39;;;;;;;0.00;0.00;;;4.10;76.70;;;;;;4152442;28;20050;-70
2022/04/04 01:21:05;;;;;;;0.00;0.00;;;4.10;76.80;;;;;;4165754;28;20078;-70
2022/04/04 01:23:41;;;;;;;0.00;0.00;;;4.10;76.70;;;;;;4167342;28;20476;-70
2022/04/04 01:26:13;;;;;;;0.00;0.00;;;4.00;76.70;;;;;;4182895;28;20118;-66
2022/04/04 01:28:39;;;;;;;0.00;0.00;;;3.90;76.90;;;;;;4168940;28;20041;-67
2022/04/04 01:31:04;;;;;;;0.00;0.00;;;4.00;77.00;;;;;;4168692;28;20045;-67
2022/04/04 01:33:26;;;;;;;0.00;0.00;;;4.10;76.90;;;;;;4182796;28;20077;-70
2022/04/04 01:35:48;;;;;;;0.00;0.00;;;4.10;76.80;;;;;;4169188;28;20514;-69
2022/04/04 01:38:10;;;;;;;0.00;0.00;;;4.10;76.70;;;;;;4155172;28;20417;-66
2022/04/04 01:40:35;;;;;;;0.00;0.00;;;4.10;76.80;;;;;;4168689;28;20052;-68
2022/04/04 01:42:59;;;;;;;0.00;0.00;;;4.20;76.80;;;;;;4168454;28;20049;-66
2022/04/04 01:46:23;;;;;;;0.00;0.00;;;4.10;76.60;;;;;;4141880;28;20057;-68
2022/04/04 01:48:07;;;;;;;0.00;0.00;;;4.20;76.80;;;;;;4182419;28;20107;-66
2022/04/04 01:50:29;;;;;;;0.00;0.00;;;4.10;76.70;;;;;;4168833;28;20052;-67
2022/04/04 01:53:25;;;;;;;0.00;0.00;;;4.10;76.80;;;;;;4168357;28;20053;-68
2022/04/04 01:55:42;;;;;;;0.00;0.00;;;4.00;76.70;;;;;;4168543;28;20081;-68
2022/04/04 01:58:06;;;;;;;0.00;0.00;;;4.00;76.80;;;;;;4182191;28;20066;-65
2022/04/04 02:00:29;;;;;;;0.00;0.00;;;4.00;76.90;;;;;;4168951;28;20052;-67
2022/04/04 02:02:53;;;;;;;0.00;0.00;;;4.00;76.90;;;;;;4180942;28;20461;-71
2022/04/04 02:05:15;;;;;;;0.00;0.00;;;3.90;77.30;;;;;;4154562;28;20056;-66
2022/04/04 02:07:39;;;;;;;0.00;0.00;;;3.90;77.40;;;;;;4182101;28;20129;-67
2022/04/04 02:10:04;;;;;;;0.00;0.00;;;4.00;77.30;;;;;;4154725;28;20494;-68
2022/04/04 02:12:30;;;;;;;0.00;0.00;;;3.90;77.30;;;;;;4180057;28;20110;-68
2022/04/04 02:14:53;;;;;;;0.00;0.00;;;4.00;77.20;;;;;;4165220;28;20487;-68
2022/04/04 02:17:20;;;;;;;0.00;0.00;;;4.10;77.10;;;;;;4165750;28;20049;-68
2022/04/04 02:19:42;;;;;;;0.00;0.00;;;4.10;77.10;;;;;;4151864;28;20045;-68
2022/04/04 02:22:04;;;;;;;0.00;0.00;;;4.10;77.10;;;;;;4165484;28;20064;-70
2022/04/04 02:24:29;;;;;;;0.00;0.00;;;4.20;77.10;;;;;;4165552;28;20054;-69
2022/04/04 02:26:53;;;;;;;0.00;0.00;;;4.20;77.10;;;;;;4175679;28;20053;-65
2022/04/04 02:29:18;;;;;;;0.00;0.00;;;4.20;77.10;;;;;;4168239;28;20110;-68
2022/04/04 02:31:40;;;;;;;0.00;0.00;;;4.10;77.30;;;;;;4168075;28;20049;-69
2022/04/04 02:34:05;;;;;;;0.00;0.00;;;4.20;78.10;;;;;;4154379;28;20042;-71
2022/04/04 02:36:32;;;;;;;0.00;0.00;;;4.20;77.50;;;;;;4154244;28;20072;-68
2022/04/04 02:38:56;;;;;;;0.00;0.00;;;4.10;77.60;;;;;;4154346;28;20111;-71
2022/04/04 02:41:19;;;;;;;0.00;0.00;;;4.10;77.80;;;;;;4168032;28;20037;-67
2022/04/04 02:43:41;;;;;;;0.00;0.00;;;4.10;77.90;;;;;;4154233;28;20042;-69
2022/04/04 02:46:03;;;;;;;0.00;0.00;;;4.10;77.60;;;;;;4167896;28;20064;-72
2022/04/04 02:48:28;;;;;;;0.00;0.00;;;4.10;77.60;;;;;;4167694;28;20167;-66
2022/04/04 02:50:52;;;;;;;0.00;0.00;;;4.10;77.50;;;;;;4153624;28;20141;-67
2022/04/04 02:53:16;;;;;;;0.00;0.00;;;4.20;77.70;;;;;;4153916;28;20050;-67
2022/04/04 02:58:19;;;;;;;0.00;0.00;;;4.30;77.40;;;;;;4167647;28;20046;-68
2022/04/04 03:00:42;;;;;;;0.00;0.00;;;4.20;77.20;;;;;;4167107;28;20049;-70
2022/04/04 03:03:06;;;;;;;0.00;0.00;;;4.10;77.40;;;;;;4167687;28;20051;-66
2022/04/04 03:05:31;;;;;;;0.00;0.00;;;4.20;77.50;;;;;;4153661;28;20096;-68
2022/04/04 03:07:55;;;;;;;0.00;0.00;;;4.20;77.30;;;;;;4153754;28;20042;-66
2022/04/04 03:10:20;;;;;;;0.00;0.00;;;4.20;77.20;;;;;;4167563;28;20049;-67
2022/04/04 03:12:52;;;;;;;0.00;0.00;;;4.20;77.10;;;;;;4153235;28;20081;-68
2022/04/04 03:15:20;;;;;;;0.00;0.00;;;4.20;77.20;;;;;;4167650;28;20061;-67
2022/04/04 03:17:47;;;;;;;0.00;0.00;;;4.10;77.10;;;;;;4153956;28;20094;-66
2022/04/04 03:20:13;;;;;;;0.00;0.00;;;4.10;77.40;;;;;;4153589;28;20049;-67
2022/04/04 03:22:40;;;;;;;0.00;0.00;;;4.20;77.50;;;;;;4167243;28;20049;-69
2022/04/04 03:25:04;;;;;;;0.00;0.00;;;4.20;77.40;;;;;;4153028;28;20140;-67
2022/04/04 03:27:26;;;;;;;0.00;0.00;;;4.10;77.60;;;;;;4153406;28;20248;-68
2022/04/04 03:29:48;;;;;;;0.00;0.00;;;4.10;78.20;;;;;;4167440;28;20040;-69
2022/04/04 03:32:10;;;;;;;0.00;0.00;;;4.10;77.40;;;;;;4153579;28;20373;-68
2022/04/04 03:34:33;;;;;;;0.00;0.00;;;4.00;77.50;;;;;;4167239;28;20124;-66
2022/04/04 03:36:55;;;;;;;0.00;0.00;;;4.00;77.60;;;;;;4166683;28;20053;-67
2022/04/04 03:39:17;;;;;;;0.00;0.00;;;4.10;77.60;;;;;;4167176;28;20073;-67
2022/04/04 03:41:43;;;;;;;0.00;0.00;;;4.00;77.70;;;;;;4167004;28;20041;-65
2022/04/04 03:44:08;;;;;;;0.00;0.00;;;4.00;77.80;;;;;;4153744;28;20049;-65
2022/04/04 03:46:30;;;;;;;0.00;0.00;;;4.00;78.00;;;;;;4152682;28;20068;-72
2022/04/04 03:48:54;;;;;;;0.00;0.00;;;4.00;78.10;;;;;;4152533;28;20092;-67
2022/04/04 03:51:21;;;;;;;0.00;0.00;;;3.90;78.20;;;;;;4167063;28;20072;-69
2022/04/04 03:53:45;;;;;;;0.00;0.00;;;4.10;78.20;;;;;;4153152;28;20052;-69
2022/04/04 03:56:07;;;;;;;0.00;0.00;;;4.10;78.10;;;;;;4166867;28;20053;-67
2022/04/04 03:58:30;;;;;;;0.00;0.00;;;4.10;78.10;;;;;;4167259;28;20073;-67
2022/04/04 04:00:54;;;;;;;0.00;0.00;;;4.00;78.10;;;;;;4152933;28;20427;-67
2022/04/04 04:03:18;;;;;;;0.00;0.00;;;4.00;78.30;;;;;;4167467;28;20132;-67
2022/04/04 04:05:43;;;;;;;0.00;0.00;;;4.10;78.40;;;;;;4167109;28;20375;-71
2022/04/04 04:08:06;;;;;;;0.00;0.00;;;4.10;78.50;;;;;;4166859;28;20049;-69
2022/04/04 04:10:29;;;;;;;0.00;0.00;;;4.20;78.30;;;;;;4153697;28;20045;-66
2022/04/04 04:12:51;;;;;;;0.00;0.00;;;4.20;78.30;;;;;;4152843;28;20163;-67
2022/04/04 04:15:18;;;;;;;0.00;0.00;;;4.10;78.30;;;;;;4167176;28;20092;-70
2022/04/04 04:17:40;;;;;;;0.00;0.00;;;4.10;78.30;;;;;;4152932;28;20088;-67
2022/04/04 04:20:20;;;;;;;0.00;0.00;;;3.90;78.80;;;;;;4153107;28;20054;-65
2022/04/04 04:23:05;;;;;;;0.00;0.00;;;4.00;79.00;;;;;;4152750;28;20468;-68
2022/04/04 04:25:31;;;;;;;0.00;0.00;;;4.10;78.80;;;;;;4180663;28;20484;-68
2022/04/04 04:28:01;;;;;;;0.00;0.00;;;4.10;78.60;;;;;;4152992;28;20387;-66
2022/04/04 04:30:29;;;;;;;0.00;0.00;;;4.20;78.60;;;;;;4152965;28;20053;-69
2022/04/04 04:32:55;;;;;;;0.00;0.00;;;4.20;78.40;;;;;;4152530;28;20046;-68
2022/04/04 04:35:21;;;;;;;0.00;0.00;;;4.20;78.40;;;;;;4166707;28;20073;-69
2022/04/04 04:37:44;;;;;;;0.00;0.00;;;4.20;78.40;;;;;;4139638;28;20045;-68
2022/04/04 04:40:09;;;;;;;0.00;0.00;;;4.10;78.50;;;;;;4152948;28;20427;-69
2022/04/04 04:42:34;;;;;;;0.00;0.00;;;4.10;78.70;;;;;;4153079;28;20507;-69
2022/04/04 04:44:59;;;;;;;0.00;0.00;;;4.00;79.20;;;;;;4152711;28;20061;-66
2022/04/04 04:47:23;;;;;;;0.00;0.00;;;3.80;79.70;;;;;;4166449;28;20169;-67
2022/04/04 04:49:48;;;;;;;0.00;0.00;;;3.60;80.20;;;;;;4166612;28;20099;-68
2022/04/04 04:52:10;;;;;;;0.00;0.00;;;3.70;80.30;;;;;;4166765;28;20051;-71
2022/04/04 04:54:32;;;;;;;0.00;0.00;;;3.70;80.20;;;;;;4153122;28;20415;-69
2022/04/04 04:56:59;;;;;;;0.00;0.00;;;3.70;79.90;;;;;;4152294;28;20149;-66
2022/04/04 04:59:28;;;;;;;0.00;0.00;;;3.60;80.10;;;;;;4169473;28;20091;-67
2022/04/04 05:01:50;;;;;;;0.00;0.00;;;3.50;80.30;;;;;;4169815;28;20460;-67
2022/04/04 05:04:15;;;;;;;0.00;0.00;;;3.60;80.20;;;;;;4169857;28;20542;-67
2022/04/04 05:06:40;;;;;;;0.00;0.00;;;3.80;79.80;;;;;;4169672;28;20053;-66
2022/04/04 05:09:02;;;;;;;0.00;0.00;;;3.80;79.20;;;;;;4169001;28;20100;-67
2022/04/04 05:11:24;;;;;;;0.00;0.00;;;3.80;79.10;;;;;;4155849;28;20511;-68
2022/04/04 05:13:47;;;;;;;0.00;0.00;;;3.90;79.00;;;;;;4169508;28;20045;-68
2022/04/04 05:16:14;;;;;;;0.00;0.00;;;3.90;78.80;;;;;;4155837;28;20045;-66
2022/04/04 05:18:37;;;;;;;0.00;0.00;;;4.00;78.80;;;;;;4169549;28;20076;-68
2022/04/04 05:21:03;;;;;;;0.00;0.00;;;4.00;78.60;;;;;;4182963;28;20052;-71
2022/04/04 05:23:25;;;;;;;0.00;0.00;;;3.90;78.40;;;;;;4169408;28;20095;-68
2022/04/04 05:25:49;;;;;;;0.00;0.00;;;4.00;78.80;;;;;;4155682;28;20460;-69
2022/04/04 05:28:13;;;;;;;0.00;0.00;;;4.00;78.40;;;;;;4169359;28;20393;-67
2022/04/04 05:30:38;;;;;;;0.00;0.00;;;4.10;78.30;;;;;;4155559;28;20037;-71
2022/04/04 05:33:01;;;;;;;0.00;0.00;;;4.10;78.40;;;;;;4155209;28;20081;-67
2022/04/04 05:35:23;;;;;;;0.00;0.00;;;4.10;78.40;;;;;;4169237;28;20046;-67
2022/04/04 05:37:48;;;;;;;0.00;0.00;;;4.10;78.20;;;;;;4155544;28;20074;-68
2022/04/04 05:40:10;;;;;;;0.00;0.00;;;4.10;78.50;;;;;;4155595;28;20092;-68
2022/04/04 05:42:36;;;;;;;0.00;0.00;;;4.00;78.30;;;;;;4168985;28;20045;-68
2022/04/04 05:45:00;;;;;;;0.00;0.00;;;3.70;78.90;;;;;;4168750;28;20383;-65
2022/04/04 05:47:26;;;;;;;0.00;0.00;;;3.70;79.50;;;;;;4168890;28;20042;-67
2022/04/04 05:49:51;;;;;;;0.00;0.00;;;3.90;79.20;;;;;;4169139;28;20144;-66
2022/04/04 05:52:13;;;;;;;0.00;0.00;;;3.90;79.20;;;;;;4155381;28;20148;-66
2022/04/04 05:54:53;;;;;;;0.00;0.00;;;3.90;79.00;;;;;;4154922;28;20183;-67
2022/04/04 05:57:20;;;;;;;0.00;0.00;;;3.90;79.00;;;;;;4182099;28;20096;-67
2022/04/04 05:59:42;;;;;;;0.00;0.00;;;4.00;79.20;;;;;;4155028;28;20050;-68
2022/04/04 06:02:06;;;;;;;0.00;0.00;;;4.00;79.00;;;;;;4168898;28;20764;-69
2022/04/04 06:04:29;;;;;;;0.00;0.00;;;4.00;79.10;;;;;;4141442;28;20120;-69
2022/04/04 06:06:51;;;;;;;0.00;0.00;;;3.80;79.90;;;;;;4154420;28;20061;-69
2022/04/04 06:09:17;;;;;;;0.00;0.00;;;3.80;79.50;;;;;;4154732;28;20041;-67
2022/04/04 06:11:41;;;;;;;0.00;0.00;;;3.70;79.70;;;;;;4154977;28;20049;-70
2022/04/04 06:14:03;;;;;;;0.00;0.00;;;3.70;79.80;;;;;;4168708;28;20081;-68
2022/04/04 06:16:30;;;;;;;0.00;0.00;;;3.80;80.00;;;;;;4168697;28;20049;-71
2022/04/04 06:18:54;;;;;;;0.00;0.00;;;3.70;80.10;;;;;;4154312;28;20085;-67
2022/04/04 06:21:21;;;;;;;0.00;0.00;;;3.80;80.10;;;;;;4154840;28;20038;-70
2022/04/04 06:23:46;;;;;;;0.00;0.00;;;3.80;79.90;;;;;;4155003;28;20431;-70
2022/04/04 06:26:08;;;;;;;0.00;0.00;;;3.90;79.90;;;;;;4168586;28;20037;-67
2022/04/04 06:28:31;;;;;;;0.00;0.00;;;4.00;79.60;;;;;;4154734;28;20442;-68
2022/04/04 06:30:54;;;;;;;0.00;0.00;;;3.90;79.70;;;;;;4168245;28;20089;-68
2022/04/04 06:33:16;;;;;;;0.00;0.00;;;4.00;79.50;;;;;;4154395;28;20046;-70
2022/04/04 06:35:41;;;;;;;0.00;0.00;;;4.00;79.40;;;;;;4155024;28;20468;-67
2022/04/04 06:38:05;;;;;;;0.00;0.00;;;4.10;79.40;;;;;;4154234;28;20112;-66
2022/04/04 06:40:29;;;;;;;0.00;0.00;;;4.10;79.30;;;;;;4154530;28;20046;-66
2022/04/04 06:42:51;;;;;;;0.00;0.00;;;4.20;79.10;;;;;;4167687;28;20041;-67
2022/04/04 06:45:20;;;;;;;0.00;0.00;;;4.20;79.10;;;;;;4168041;28;20064;-66
2022/04/04 06:47:48;;;;;;;0.00;0.00;;;4.20;79.00;;;;;;4167815;28;20115;-67
2022/04/04 06:50:10;;;;;;;0.00;0.00;;;4.30;79.00;;;;;;4167663;28;20049;-68
2022/04/04 06:52:35;;;;;;;0.00;0.00;;;4.40;79.30;;;;;;4154159;28;20100;-67
2022/04/04 06:54:57;;;;;;;0.00;0.00;;;4.60;79.40;;;;;;4154193;28;20407;-66
2022/04/04 06:57:20;;;;;;;0.00;0.00;;;4.80;78.90;;;;;;4137800;28;20064;-71
2022/04/04 06:59:42;;;;;;;0.00;0.00;;;4.90;78.90;;;;;;4165306;28;20048;-67
2022/04/04 07:02:09;;;;;;;0.00;0.00;;;4.80;78.80;;;;;;4151405;28;20049;-68
2022/04/04 07:04:33;;;;;;;0.00;0.00;;;4.90;79.00;;;;;;4165252;28;20041;-68
2022/04/04 07:06:58;;;;;;;0.00;0.00;;;4.90;78.90;;;;;;4164712;28;20057;-67
2022/04/04 07:09:23;;;;;;;0.00;0.00;;;5.00;78.50;;;;;;4155479;28;20428;-69
2022/04/04 07:11:50;;;;;;;0.00;0.00;;;5.00;78.40;;;;;;4165029;28;20046;-68
2022/04/04 07:14:14;;;;;;;0.00;0.00;;;5.10;78.40;;;;;;4164868;28;20447;-69
2022/04/04 07:16:42;;;;;;;0.00;0.00;;;5.30;78.00;;;;;;4164845;28;20095;-69
2022/04/04 07:19:09;;;;;;;0.00;0.00;;;5.30;78.10;;;;;;4178264;28;20040;-70
2022/04/04 07:21:34;;;;;;;0.00;0.00;;;5.10;77.30;;;;;;4151264;28;20056;-69
2022/04/04 07:23:58;;;;;;;0.00;0.00;;;5.20;78.00;;;;;;4164681;28;20092;-69
2022/04/04 07:26:26;;;;;;;0.00;0.00;;;5.10;77.50;;;;;;4151098;28;20045;-69
2022/04/04 07:28:50;;;;;;;0.00;0.00;;;5.10;77.90;;;;;;4137934;28;20060;-69
2022/04/04 07:31:17;;;;;;;0.00;0.00;;;5.30;77.70;;;;;;4137439;28;20054;-70
2022/04/04 07:33:39;;;;;;;0.00;0.00;;;5.40;77.20;;;;;;4137609;28;20038;-68
2022/04/04 07:36:03;;;;;;;0.00;0.00;;;5.50;76.50;;;;;;4137359;28;20046;-69
2022/04/04 07:38:25;;;;;;;0.00;0.00;;;5.50;76.70;;;;;;4164797;28;20053;-70
2022/04/04 07:40:51;;;;;;;0.00;0.00;;;5.60;76.60;;;;;;4150861;28;20053;-70
2022/04/04 07:43:13;;;;;;;0.00;0.00;;;5.60;76.60;;;;;;4124195;28;20457;-68
2022/04/04 07:45:35;;;;;;;0.00;0.00;;;5.80;76.60;;;;;;4137333;28;20042;-69
2022/04/04 07:48:04;;;;;;;0.00;0.00;;;6.00;76.20;;;;;;4124590;28;20069;-68
2022/04/04 07:50:27;;;;;;;0.00;0.00;;;6.20;75.90;;;;;;4163994;28;20053;-68
2022/04/04 07:52:53;;;;;;;0.00;0.00;;;6.50;75.70;;;;;;4123071;28;20133;-69
2022/04/04 07:55:18;;;;;;;0.00;0.00;;;6.70;75.00;;;;;;4152984;28;20042;-69
2022/04/04 07:57:43;;;;;;;0.00;0.00;;;6.90;73.30;;;;;;4148573;28;20080;-71
2022/04/04 08:00:11;;;;;;;0.00;0.00;;;6.90;73.80;;;;;;4166712;28;20041;-70
2022/04/04 08:02:38;;;;;;;0.00;0.00;;;7.00;72.90;;;;;;4153036;28;20050;-69
2022/04/04 08:05:04;;;;;;;0.00;0.00;;;7.40;72.40;;;;;;4166209;28;20049;-71
2022/04/04 08:07:28;;;;;;;0.00;0.00;;;7.60;70.70;;;;;;4160956;28;20048;-70
2022/04/04 08:09:51;;;;;;;0.00;0.00;;;7.80;70.20;;;;;;4166492;28;20045;-69
2022/04/04 08:12:16;;;;;;;0.00;0.00;;;8.20;69.80;;;;;;4180367;28;20395;-70
2022/04/04 08:14:41;;;;;;;0.00;0.00;;;8.50;68.60;;;;;;4166473;28;20095;-71
2022/04/04 08:17:03;;;;;;;0.00;0.00;;;8.80;68.50;;;;;;4177351;28;20110;-71
2022/04/04 08:19:25;;;;;;;0.00;0.00;;;9.10;67.80;;;;;;4180766;28;20115;-70
2022/04/04 08:21:50;;;;;;;0.00;0.00;;;9.40;66.60;;;;;;4180241;28;20041;-69
2022/04/04 08:24:15;;;;;;;0.00;0.00;;;9.30;65.60;;;;;;4166726;28;20057;-70
2022/04/04 08:26:42;;;;;;;0.00;0.00;;;9.50;65.90;;;;;;4180460;28;20144;-67
2022/04/04 08:29:09;;;;;;;0.00;0.00;;;9.50;64.20;;;;;;4193910;28;20447;-70
2022/04/04 08:31:38;;;;;;;0.00;0.00;;;9.60;64.40;;;;;;4180638;28;20086;-70
2022/04/04 08:34:00;;;;;;;0.00;0.00;;;9.60;64.00;;;;;;4168922;28;20487;-69
2022/04/04 08:36:22;;;;;;;0.00;0.00;;;9.70;63.80;;;;;;4184102;28;20052;-68
2022/04/04 08:38:46;;;;;;;0.00;0.00;;;9.90;63.00;;;;;;4169576;28;20054;-71
2022/04/04 08:41:11;;;;;;;0.00;0.00;;;10.10;62.80;;;;;;4184105;28;20041;-70
2022/04/04 08:43:37;;;;;;;0.00;0.00;;;10.20;61.70;;;;;;4183847;28;20129;-73
2022/04/04 08:46:01;;;;;;;0.00;0.00;;;10.40;61.80;;;;;;4169821;28;20044;-70
2022/04/04 08:48:25;;;;;;;0.00;0.00;;;10.40;60.30;;;;;;4170415;28;20132;-72
2022/04/04 08:50:50;;;;;;;0.00;0.00;;;10.60;60.50;;;;;;4183381;28;20154;-70
2022/04/04 08:53:12;;;;;;;0.00;0.00;;;10.80;60.90;;;;;;4170021;28;20103;-71
2022/04/04 08:55:39;;;;;;;0.00;0.00;;;10.80;59.20;;;;;;4169779;28;20057;-69
2022/04/04 08:58:03;;;;;;;0.00;0.00;;;10.20;60.00;;;;;;4183269;28;20041;-70
2022/04/04 09:00:25;;;;;;;0.00;0.00;;;10.10;59.30;;;;;;4169751;28;20061;-70
2022/04/04 09:03:04;;;;;;;0.00;0.00;;;10.00;60.30;;;;;;4169497;28;20063;-72
2022/04/04 09:05:29;;;;;;;0.00;0.00;;;10.20;59.20;;;;;;4169860;28;20067;-72
2022/04/04 09:08:04;;;;;;;0.00;0.00;;;10.00;59.70;;;;;;4170092;28;20040;-69
2022/04/04 09:10:35;;;;;;;0.00;0.00;;;10.40;60.00;;;;;;4183538;28;20041;-70
2022/04/04 09:13:12;;;;;;;0.00;0.00;;;10.40;59.50;;;;;;4169313;28;20079;-71
2022/04/04 09:15:57;;;;;;;0.00;0.00;;;10.50;59.20;;;;;;4169574;28;20055;-71
2022/04/04 09:18:40;;;;;;;0.00;0.00;;;10.70;58.10;;;;;;4155600;28;20045;-69
2022/04/04 09:21:11;;;;;;;0.00;0.00;;;10.60;58.40;;;;;;4196755;28;20047;-69
2022/04/04 09:24:07;;;;;;;0.00;0.00;;;10.20;59.10;;;;;;4169380;28;20478;-69
2022/04/04 09:26:40;;;;;;;0.00;0.00;;;10.10;58.30;;;;;;4183218;28;20640;-72
2022/04/04 09:29:16;;;;;;;0.00;0.00;;;10.30;58.30;;;;;;4182539;28;20052;-69
2022/04/04 09:32:05;;;;;;;0.00;0.00;;;10.50;57.20;;;;;;4182950;28;20359;-69
2022/04/04 09:34:51;;;;;;;0.00;0.00;;;10.80;57.00;;;;;;4182786;28;20048;-69
2022/04/04 09:37:19;;;;;;;0.00;0.00;;;11.10;56.80;;;;;;4168749;28;20053;-69
2022/04/04 09:39:44;;;;;;;0.00;0.00;;;11.50;56.30;;;;;;4156141;28;20041;-71
2022/04/04 09:42:28;;;;;;;0.00;0.00;;;11.70;55.40;;;;;;4182958;28;20056;-69
2022/04/04 09:45:03;;;;;;;0.00;0.00;;;11.70;55.40;;;;;;4181280;28;20087;-70
2022/04/04 09:47:50;;;;;;;0.00;0.00;;;11.80;54.30;;;;;;4170728;28;20132;-70
2022/04/04 09:50:38;;;;;;;0.00;0.00;;;11.90;54.20;;;;;;4169146;28;20049;-69
2022/04/04 09:53:07;;;;;;;0.00;0.00;;;12.10;53.10;;;;;;4182399;28;20048;-70
2022/04/04 09:55:40;;;;;;;0.00;0.00;;;12.20;52.50;;;;;;4182888;28;20422;-71
2022/04/04 09:58:08;;;;;;;0.00;0.00;;;12.40;51.70;;;;;;4168426;28;20081;-72
2022/04/04 10:00:34;;;;;;;0.00;0.00;;;12.60;51.80;;;;;;4182665;28;20049;-69
2022/04/04 10:02:59;;;;;;;0.00;0.00;;;12.70;51.60;;;;;;4181930;28;20056;-69
2022/04/04 10:05:27;;;;;;;0.00;0.00;;;12.60;51.20;;;;;;4168826;28;20469;-70
2022/04/04 10:07:53;;;;;;;0.00;0.00;;;12.50;51.00;;;;;;4182643;28;20045;-70
2022/04/04 10:10:23;;;;;;;0.00;0.00;;;12.60;50.90;;;;;;4169108;28;20056;-69
2022/04/04 10:12:49;;;;;;;0.00;0.00;;;12.50;50.70;;;;;;4168202;28;20061;-70
2022/04/04 10:15:13;;;;;;;0.00;0.00;;;12.30;51.50;;;;;;4154900;28;20045;-70
2022/04/04 10:17:38;;;;;;;0.00;0.00;;;12.40;51.90;;;;;;4169030;28;20087;-69
2022/04/04 10:20:06;;;;;;;0.00;0.00;;;12.30;51.70;;;;;;4168438;28;20045;-68
2022/04/04 10:22:29;;;;;;;0.00;0.00;;;11.90;53.10;;;;;;4182453;28;20052;-73
2022/04/04 10:24:51;;;;;;;0.00;0.00;;;12.20;52.20;;;;;;4168087;28;20468;-70
2022/04/04 10:27:20;;;;;;;0.00;0.00;;;11.30;51.30;;;;;;4182550;28;20095;-68
2022/04/04 10:29:47;;;;;;;0.00;0.00;;;10.70;53.10;;;;;;4168265;28;20129;-71
2022/04/04 10:32:23;;;;;;;0.00;0.00;;;10.40;54.40;;;;;;4182116;28;20049;-71
2022/04/04 10:34:47;;;;;;;0.00;0.00;;;10.50;55.60;;;;;;4181688;28;20049;-68
2022/04/04 10:37:14;;;;;;;0.00;0.00;;;10.70;55.00;;;;;;4168219;28;20099;-69
2022/04/04 10:39:44;;;;;;;0.00;0.00;;;11.20;55.80;;;;;;4168347;28;20037;-72
2022/04/04 10:42:30;;;;;;;0.00;0.00;;;11.70;54.10;;;;;;4168277;28;20514;-72
2022/04/04 10:45:03;;;;;;;0.00;0.00;;;12.00;53.60;;;;;;4167867;28;20726;-70
2022/04/04 10:47:27;;;;;;;0.00;0.00;;;12.00;52.20;;;;;;4168228;28;20075;-69
2022/04/04 10:49:52;;;;;;;0.00;0.00;;;11.90;52.30;;;;;;4168034;28;20050;-71
2022/04/04 10:52:19;;;;;;;0.00;0.00;;;11.90;52.30;;;;;;4168077;28;20063;-69
2022/04/04 10:54:46;;;;;;;0.00;0.00;;;11.40;52.40;;;;;;4181518;28;20041;-68
2022/04/04 10:57:17;;;;;;;0.00;0.00;;;10.60;52.90;;;;;;4167502;28;20049;-70
2022/04/04 10:59:45;;;;;;;0.00;0.00;;;10.90;53.30;;;;;;4182017;28;20471;-71
2022/04/04 11:02:10;;;;;;;0.00;0.00;;;11.30;53.20;;;;;;4168708;28;20497;-69
2022/04/04 11:07:38;;;;;;;0.00;0.00;;;11.50;53.90;;;;;;4167790;28;20046;-72
2022/04/04 11:07:38;;;;;;;0.00;0.00;;;11.80;54.30;;;;;;4181452;28;20041;-70
2022/04/04 11:10:08;;;;;;;0.00;0.00;;;12.00;54.30;;;;;;4167698;28;20076;-69
2022/04/04 11:13:05;;;;;;;0.00;0.00;;;12.20;54.40;;;;;;4167659;28;20125;-70
2022/04/04 11:15:51;;;;;;;0.00;0.00;;;12.30;53.90;;;;;;4194947;28;20136;-73
2022/04/04 11:18:14;;;;;;;0.00;0.00;;;12.30;54.20;;;;;;4167612;28;20072;-70
2022/04/04 11:21:03;;;;;;;0.00;0.00;;;12.30;52.80;;;;;;4167481;28;20406;-69
2022/04/04 11:23:36;;;;;;;0.00;0.00;;;12.30;52.90;;;;;;4167362;28;20049;-70
2022/04/04 11:26:08;;;;;;;0.00;0.00;;;12.50;53.10;;;;;;4154233;28;20049;-71
2022/04/04 11:28:36;;;;;;;0.00;0.00;;;13.00;51.90;;;;;;4167635;28;20077;-68
2022/04/04 11:31:08;;;;;;;0.00;0.00;;;12.90;51.80;;;;;;4180791;28;20037;-70
2022/04/04 11:33:31;;;;;;;0.00;0.00;;;12.90;50.70;;;;;;4181111;28;20037;-73
2022/04/04 11:35:54;;;;;;;0.00;0.00;;;12.80;51.30;;;;;;4167139;28;20049;-72
2022/04/04 11:38:19;;;;;;;0.00;0.00;;;13.00;51.40;;;;;;4167202;28;20144;-70
2022/04/04 11:40:45;;;;;;;0.00;0.00;;;13.30;51.00;;;;;;4180825;28;20048;-69
2022/04/04 11:43:09;;;;;;;0.00;0.00;;;12.80;50.30;;;;;;4167492;28;20047;-69
2022/04/04 11:45:39;;;;;;;0.00;0.00;;;12.20;52.30;;;;;;4181126;28;20473;-68
2022/04/04 11:48:14;;;;;;;0.00;0.00;;;11.60;51.90;;;;;;4181064;28;20502;-71
2022/04/04 11:50:38;;;;;;;0.00;0.00;;;11.50;53.80;;;;;;4167065;28;20199;-69
2022/04/04 11:53:03;;;;;;;0.00;0.00;;;11.90;54.00;;;;;;4166799;28;20087;-71
2022/04/04 11:55:27;;;;;;;0.00;0.00;;;12.20;53.40;;;;;;4180892;28;20041;-70
2022/04/04 11:57:56;;;;;;;0.00;0.00;;;12.40;53.10;;;;;;4180580;28;20048;-72
2022/04/04 12:00:26;;;;;;;0.00;0.00;;;12.20;51.30;;;;;;4167030;28;20044;-70
2022/04/04 12:02:50;;;;;;;0.00;0.00;;;12.10;51.90;;;;;;4154253;28;20485;-72
2022/04/04 12:05:22;;;;;;;0.00;0.00;;;12.30;52.80;;;;;;4153639;28;20049;-71
2022/04/04 12:07:44;;;;;;;0.00;0.00;;;12.30;52.40;;;;;;4167370;28;20053;-71
2022/04/04 12:10:16;;;;;;;0.00;0.00;;;12.40;52.70;;;;;;4167160;28;20049;-69
2022/04/04 12:12:40;;;;;;;0.00;0.00;;;12.40;52.50;;;;;;4180620;28;20407;-69
2022/04/04 12:15:02;;;;;;;0.00;0.00;;;12.40;53.00;;;;;;4166396;28;20045;-71
2022/04/04 12:17:29;;;;;;;0.00;0.00;;;12.80;52.70;;;;;;4166558;28;20442;-70
2022/04/04 12:19:52;;;;;;;0.00;0.00;;;13.00;52.00;;;;;;4166680;28;20462;-67
2022/04/04 12:25:06;;;;;;;0.00;0.00;;;12.80;50.80;;;;;;4180385;28;20140;-70
2022/04/04 12:27:30;;;;;;;0.00;0.00;;;12.50;52.20;;;;;;4153489;28;20052;-68
2022/04/04 12:30:03;;;;;;;0.00;0.00;;;12.50;52.40;;;;;;4167154;28;20530;-69
2022/04/04 12:32:37;;;;;;;0.00;0.00;;;12.20;52.90;;;;;;4153088;28;20080;-69
2022/04/04 12:35:08;;;;;;;0.00;0.00;;;12.00;53.70;;;;;;4166149;28;20057;-71
2022/04/04 12:37:37;;;;;;;0.00;0.00;;;12.10;53.40;;;;;;4166728;28;20053;-71
2022/04/04 12:40:32;;;;;;;0.00;0.00;;;12.10;53.00;;;;;;4180243;28;20057;-70
2022/04/04 12:43:09;;;;;;;0.00;0.00;;;12.30;54.00;;;;;;4163874;28;20071;-72
2022/04/04 12:45:32;;;;;;;0.00;0.00;;;12.20;53.60;;;;;;4180352;28;20048;-70
2022/04/04 12:47:59;;;;;;;0.00;0.00;;;12.10;54.10;;;;;;4180398;28;20487;-70
2022/04/04 12:50:21;;;;;;;0.00;0.00;;;11.90;53.30;;;;;;4180349;28;20486;-70
2022/04/04 12:53:06;;;;;;;0.00;0.00;;;11.80;54.20;;;;;;4166232;28;20054;-69
2022/04/04 12:55:28;;;;;;;0.00;0.00;;;11.90;55.00;;;;;;4180496;28;20487;-70